Time;durP1;ratioP1;P1;durP2;ratioP2;P2;SDS_P1;SDS_P2;PMS_P1;PMS_P2;Temp;Humidity;BMP_temperature;BMP_pressure;BME280_temperature;BME280_humidity;BME280_pressure;Samples;Min_cycle;Max_cycle;Signal;HPM_P1;HPM_P2
2022/09/18 00:02:26;;;;;;;0.50;0.50;;;11.20;99.90;;;;;;5071019;28;20255;-76
2022/09/18 00:04:54;;;;;;;0.68;0.68;;;11.20;99.90;;;;;;5071028;28;20213;-76
2022/09/18 00:07:21;;;;;;;0.50;0.40;;;11.20;99.90;;;;;;5071306;28;20249;-76
2022/09/18 00:09:48;;;;;;;0.50;0.40;;;11.20;99.90;;;;;;5069935;28;20197;-76
2022/09/18 00:12:14;;;;;;;0.50;0.40;;;11.20;99.90;;;;;;5073469;28;20194;-76
2022/09/18 00:14:41;;;;;;;0.50;0.40;;;11.20;99.90;;;;;;5075073;28;20579;-75
2022/09/18 00:17:08;;;;;;;0.50;0.40;;;11.20;99.90;;;;;;5074997;28;20186;-75
2022/09/18 00:19:36;;;;;;;0.50;0.40;;;11.10;99.90;;;;;;5074824;28;20204;-76
2022/09/18 00:22:03;;;;;;;0.50;0.40;;;11.10;99.90;;;;;;5075116;28;20200;-76
2022/09/18 00:24:30;;;;;;;0.50;0.40;;;11.10;99.90;;;;;;5074653;28;20714;-76
2022/09/18 00:26:57;;;;;;;0.50;0.40;;;11.10;99.90;;;;;;5074530;28;20218;-77
2022/09/18 00:29:24;;;;;;;0.50;0.40;;;11.10;99.90;;;;;;5075265;28;20225;-76
2022/09/18 00:31:50;;;;;;;0.50;0.40;;;11.10;99.90;;;;;;5074744;28;20639;-76
2022/09/18 00:34:17;;;;;;;0.50;0.40;;;11.10;99.90;;;;;;5074754;28;20220;-76
2022/09/18 00:36:45;;;;;;;0.50;0.40;;;11.00;99.90;;;;;;5074746;28;20205;-76
2022/09/18 00:39:13;;;;;;;1.35;0.77;;;11.10;99.90;;;;;;5074706;28;20222;-76
2022/09/18 00:41:42;;;;;;;0.50;0.40;;;11.10;99.90;;;;;;5074252;28;20205;-76
2022/09/18 00:44:40;;;;;;;0.50;0.40;;;11.10;99.90;;;;;;5073851;28;20300;-76
2022/09/18 00:47:17;;;;;;;1.23;1.23;;;11.10;99.90;;;;;;5029676;28;20221;-76
2022/09/18 00:49:49;;;;;;;3.75;2.35;;;11.10;99.90;;;;;;5074904;28;20174;-76
2022/09/18 00:52:20;;;;;;;0.50;0.40;;;11.00;99.90;;;;;;5074291;28;20186;-76
2022/09/18 00:54:50;;;;;;;0.50;0.40;;;11.00;99.90;;;;;;5073953;28;20233;-73
2022/09/18 00:57:22;;;;;;;0.50;0.40;;;11.00;99.90;;;;;;5074426;28;20198;-76
2022/09/18 00:59:51;;;;;;;0.50;0.40;;;11.00;99.90;;;;;;5074647;28;20204;-76
2022/09/18 01:02:18;;;;;;;0.50;0.40;;;11.00;99.90;;;;;;5074233;28;20750;-76
2022/09/18 01:04:46;;;;;;;0.50;0.40;;;11.00;99.90;;;;;;5073613;28;20250;-76
2022/09/18 01:07:27;;;;;;;1.63;1.63;;;11.00;99.90;;;;;;5073915;28;20220;-76
2022/09/18 01:10:03;;;;;;;0.50;0.40;;;11.00;99.90;;;;;;5074228;28;20842;-75
2022/09/18 01:12:38;;;;;;;0.50;0.40;;;11.00;99.90;;;;;;5074087;28;20201;-76
2022/09/18 01:15:12;;;;;;;0.65;0.65;;;11.10;99.90;;;;;;5073440;28;20641;-76
2022/09/18 01:17:45;;;;;;;0.50;0.40;;;11.10;99.90;;;;;;5074064;28;20196;-76
2022/09/18 01:20:40;;;;;;;0.50;0.45;;;11.10;99.90;;;;;;5073744;28;20186;-76
2022/09/18 01:23:35;;;;;;;0.50;0.40;;;11.20;99.90;;;;;;5072442;28;20209;-76
2022/09/18 01:26:16;;;;;;;0.50;0.40;;;11.10;99.90;;;;;;5073714;28;20264;-76
2022/09/18 01:28:48;;;;;;;0.50;0.40;;;11.10;99.90;;;;;;5073792;28;20201;-76
2022/09/18 01:31:19;;;;;;;0.50;0.40;;;11.10;99.90;;;;;;5073762;28;20288;-76
2022/09/18 01:33:51;;;;;;;0.50;0.40;;;11.10;99.90;;;;;;5073909;28;20667;-75
2022/09/18 01:36:22;;;;;;;0.50;0.40;;;11.10;99.90;;;;;;5073883;28;20181;-76
2022/09/18 01:38:53;;;;;;;0.50;0.40;;;11.10;99.90;;;;;;5073820;28;20189;-76
2022/09/18 01:41:23;;;;;;;0.50;0.45;;;11.20;99.90;;;;;;5073481;28;20210;-76
2022/09/18 01:43:56;;;;;;;0.50;0.40;;;11.20;99.90;;;;;;5073397;28;20208;-75
2022/09/18 01:46:24;;;;;;;0.50;0.40;;;11.20;99.90;;;;;;5073751;28;20673;-76
2022/09/18 01:48:56;;;;;;;0.50;0.40;;;11.20;99.90;;;;;;5073125;28;20198;-76
2022/09/18 01:51:27;;;;;;;0.50;0.40;;;11.20;99.90;;;;;;5073447;28;20179;-76
2022/09/18 01:53:59;;;;;;;0.60;0.50;;;11.20;99.90;;;;;;5073268;28;20277;-74
2022/09/18 01:56:28;;;;;;;1.05;0.60;;;11.20;99.90;;;;;;5073559;28;20323;-76
2022/09/18 01:58:59;;;;;;;0.50;0.40;;;11.20;99.90;;;;;;5073642;28;20667;-75
2022/09/18 02:01:29;;;;;;;0.50;0.40;;;11.20;99.90;;;;;;5073366;28;20273;-77
2022/09/18 02:04:02;;;;;;;1.02;0.65;;;11.20;99.90;;;;;;5073019;28;20602;-75
2022/09/18 02:06:34;;;;;;;1.08;1.08;;;11.20;99.90;;;;;;5073196;28;20267;-76
2022/09/18 02:09:02;;;;;;;0.60;0.50;;;11.20;99.90;;;;;;5073593;28;20182;-76
2022/09/18 02:11:31;;;;;;;0.50;0.40;;;11.20;99.90;;;;;;5073014;28;20289;-76
2022/09/18 02:14:05;;;;;;;0.63;0.60;;;11.20;99.90;;;;;;5072632;28;20229;-76
2022/09/18 02:16:36;;;;;;;0.80;0.60;;;11.20;99.90;;;;;;5073051;28;20577;-75
2022/09/18 02:19:07;;;;;;;0.50;0.50;;;11.20;99.90;;;;;;5072448;28;20288;-76
2022/09/18 02:21:36;;;;;;;0.60;0.60;;;11.20;99.90;;;;;;5072999;28;20274;-76
2022/09/18 02:24:08;;;;;;;0.50;0.40;;;11.20;99.90;;;;;;5072505;28;20205;-76
2022/09/18 02:26:37;;;;;;;0.70;0.55;;;11.20;99.90;;;;;;5073056;28;20202;-76
2022/09/18 02:29:07;;;;;;;1.27;1.02;;;11.20;99.90;;;;;;5072384;28;20632;-76
2022/09/18 02:31:36;;;;;;;0.50;0.40;;;11.20;99.90;;;;;;5072833;28;20194;-76
2022/09/18 02:34:07;;;;;;;1.48;1.38;;;11.20;99.90;;;;;;5072152;28;20194;-75
2022/09/18 02:36:53;;;;;;;0.50;0.40;;;11.20;99.90;;;;;;5072400;28;20205;-76
2022/09/18 02:39:34;;;;;;;0.50;0.40;;;11.20;99.90;;;;;;5072091;28;20200;-76
2022/09/18 02:42:13;;;;;;;1.88;1.60;;;11.20;99.90;;;;;;5072382;28;20179;-76
2022/09/18 02:44:50;;;;;;;0.50;0.40;;;11.20;99.90;;;;;;5072241;28;20247;-76
2022/09/18 02:47:32;;;;;;;0.50;0.40;;;11.20;99.90;;;;;;5071821;28;20233;-75
2022/09/18 02:50:09;;;;;;;0.50;0.40;;;11.20;99.90;;;;;;5072328;28;20635;-76
2022/09/18 02:52:45;;;;;;;1.05;1.05;;;11.20;99.90;;;;;;5072524;28;20195;-75
2022/09/18 02:55:17;;;;;;;0.60;0.60;;;11.20;99.90;;;;;;5072158;28;20252;-76
2022/09/18 02:57:49;;;;;;;0.60;0.50;;;11.20;99.90;;;;;;5072010;28;20261;-76
2022/09/18 03:00:18;;;;;;;0.50;0.40;;;11.20;99.90;;;;;;5072436;28;20553;-76
2022/09/18 03:02:46;;;;;;;0.50;0.40;;;11.20;99.90;;;;;;5072308;28;20199;-75
2022/09/18 03:05:13;;;;;;;0.50;0.40;;;11.20;99.90;;;;;;5071983;28;20217;-76
2022/09/18 03:07:40;;;;;;;0.70;0.70;;;11.20;99.90;;;;;;5071581;28;20699;-74
2022/09/18 03:10:07;;;;;;;1.65;1.45;;;11.20;99.90;;;;;;5071850;28;20232;-76
2022/09/18 03:12:34;;;;;;;1.35;1.02;;;11.20;99.90;;;;;;5071744;28;20658;-76
2022/09/18 03:15:01;;;;;;;0.50;0.40;;;11.20;99.90;;;;;;5071493;28;20703;-76
2022/09/18 03:17:29;;;;;;;0.50;0.40;;;11.20;99.90;;;;;;5071673;28;20293;-76
2022/09/18 03:19:56;;;;;;;0.50;0.40;;;11.20;99.90;;;;;;5071417;28;20587;-73
2022/09/18 03:22:22;;;;;;;0.50;0.40;;;11.10;99.90;;;;;;5072299;28;20205;-76
2022/09/18 03:24:49;;;;;;;0.50;0.40;;;11.10;99.90;;;;;;5071677;28;20550;-74
2022/09/18 03:27:17;;;;;;;0.50;0.40;;;11.10;99.90;;;;;;5071675;28;20244;-76
2022/09/18 03:29:45;;;;;;;0.50;0.40;;;11.10;99.90;;;;;;5071339;28;20190;-75
2022/09/18 03:32:12;;;;;;;1.35;0.60;;;11.10;99.90;;;;;;5071573;28;20716;-76
2022/09/18 03:34:40;;;;;;;0.50;0.40;;;11.10;99.90;;;;;;5071369;28;20304;-76
2022/09/18 03:37:07;;;;;;;0.75;0.60;;;11.10;99.90;;;;;;5071867;28;20643;-76
2022/09/18 03:39:33;;;;;;;0.50;0.50;;;11.10;99.90;;;;;;5071469;28;20225;-76
2022/09/18 03:42:00;;;;;;;0.50;0.40;;;11.10;99.90;;;;;;5071563;28;20297;-75
2022/09/18 03:44:27;;;;;;;0.50;0.47;;;11.10;99.90;;;;;;5071269;28;20214;-76
2022/09/18 03:46:54;;;;;;;0.50;0.40;;;11.10;99.90;;;;;;5070348;28;20474;-76
2022/09/18 03:49:20;;;;;;;0.50;0.40;;;11.10;99.90;;;;;;5071497;28;20285;-76
2022/09/18 03:51:49;;;;;;;0.50;0.50;;;11.20;99.90;;;;;;5071376;28;20297;-76
2022/09/18 03:54:16;;;;;;;0.50;0.40;;;11.20;99.90;;;;;;5070218;28;20478;-76
2022/09/18 03:56:42;;;;;;;0.50;0.40;;;11.10;99.90;;;;;;5071494;28;20269;-76
2022/09/18 03:59:09;;;;;;;1.15;1.05;;;11.10;99.90;;;;;;5071463;28;20632;-76
2022/09/18 04:01:36;;;;;;;0.50;0.50;;;11.10;99.90;;;;;;5071006;28;20240;-75
2022/09/18 04:04:03;;;;;;;0.50;0.40;;;11.10;99.90;;;;;;5070738;28;20549;-76
2022/09/18 04:06:30;;;;;;;1.70;0.90;;;11.10;99.90;;;;;;5071438;28;20194;-76
2022/09/18 04:08:58;;;;;;;0.50;0.40;;;11.10;99.90;;;;;;5070745;28;20240;-76
2022/09/18 04:11:25;;;;;;;0.60;0.60;;;11.10;99.90;;;;;;5071367;28;20294;-75
2022/09/18 04:13:52;;;;;;;0.50;0.50;;;11.10;99.90;;;;;;5070877;28;20193;-76
2022/09/18 04:16:18;;;;;;;0.50;0.40;;;11.10;99.90;;;;;;5071056;28;20223;-76
2022/09/18 04:18:45;;;;;;;0.50;0.50;;;11.10;99.90;;;;;;5070621;28;20190;-76
2022/09/18 04:21:12;;;;;;;0.65;0.65;;;11.00;99.90;;;;;;5071361;28;20626;-76
2022/09/18 04:23:39;;;;;;;0.50;0.50;;;11.10;99.90;;;;;;5070576;28;20244;-76
2022/09/18 04:26:09;;;;;;;1.98;1.88;;;11.00;99.90;;;;;;5070980;28;20311;-76
2022/09/18 04:28:36;;;;;;;1.25;1.15;;;11.00;99.90;;;;;;5071312;28;20229;-76
2022/09/18 04:31:03;;;;;;;0.50;0.40;;;11.00;99.90;;;;;;5071332;28;20197;-76
2022/09/18 04:33:30;;;;;;;0.50;0.40;;;11.00;99.90;;;;;;5070398;28;20198;-76
2022/09/18 04:35:57;;;;;;;2.25;0.60;;;11.00;99.90;;;;;;5070669;28;20220;-76
2022/09/18 04:38:27;;;;;;;2.35;1.20;;;10.90;99.90;;;;;;5070920;28;20204;-76
2022/09/18 04:40:55;;;;;;;0.50;0.40;;;10.90;99.90;;;;;;5070758;28;20243;-76
2022/09/18 04:43:24;;;;;;;0.50;0.40;;;11.00;99.90;;;;;;5070696;28;20204;-76
2022/09/18 04:45:51;;;;;;;1.17;0.93;;;11.00;99.90;;;;;;5070471;28;20592;-75
2022/09/18 04:48:18;;;;;;;0.50;0.40;;;10.90;99.90;;;;;;5070946;28;20217;-76
2022/09/18 04:50:45;;;;;;;0.60;0.60;;;10.90;99.90;;;;;;5071059;28;20196;-76
2022/09/18 04:53:13;;;;;;;0.50;0.40;;;10.90;99.90;;;;;;5070604;28;20447;-76
2022/09/18 04:55:42;;;;;;;0.60;0.60;;;10.90;99.90;;;;;;5070296;28;20582;-76
2022/09/18 04:58:08;;;;;;;0.95;0.80;;;10.90;99.90;;;;;;5072344;28;20194;-76
2022/09/18 05:00:37;;;;;;;1.67;1.42;;;10.90;99.90;;;;;;5074320;28;20201;-76
2022/09/18 05:03:05;;;;;;;0.50;0.40;;;10.90;99.90;;;;;;5074052;28;20200;-76
2022/09/18 05:05:32;;;;;;;0.50;0.40;;;10.90;99.90;;;;;;5073825;28;20213;-76
2022/09/18 05:07:59;;;;;;;0.70;0.70;;;10.90;99.90;;;;;;5074511;28;20221;-76
2022/09/18 05:10:26;;;;;;;0.50;0.40;;;10.90;99.90;;;;;;5074345;28;20552;-76
2022/09/18 05:12:53;;;;;;;0.50;0.40;;;10.90;99.90;;;;;;5073466;28;20194;-76
2022/09/18 05:15:20;;;;;;;0.50;0.40;;;11.00;99.90;;;;;;5073844;28;20705;-76
2022/09/18 05:17:48;;;;;;;2.60;2.47;;;10.90;99.90;;;;;;5074007;28;20194;-76
2022/09/18 05:20:15;;;;;;;0.50;0.50;;;10.90;99.90;;;;;;5073544;28;20203;-76
2022/09/18 05:22:45;;;;;;;0.50;0.40;;;11.00;99.90;;;;;;5074091;28;20228;-76
2022/09/18 05:25:12;;;;;;;0.50;0.40;;;11.00;99.90;;;;;;5073877;28;20316;-76
2022/09/18 05:27:39;;;;;;;0.55;0.52;;;11.10;99.90;;;;;;5074177;28;20238;-76
2022/09/18 05:30:07;;;;;;;1.05;0.95;;;11.10;99.90;;;;;;5074298;28;20571;-76
2022/09/18 05:32:34;;;;;;;0.50;0.40;;;11.10;99.90;;;;;;5074218;28;20193;-75
2022/09/18 05:35:02;;;;;;;0.50;0.40;;;11.10;99.90;;;;;;5074688;28;20776;-76
2022/09/18 05:37:29;;;;;;;0.93;0.93;;;11.10;99.90;;;;;;5074150;28;20193;-75
2022/09/18 05:39:56;;;;;;;0.73;0.73;;;11.10;99.90;;;;;;5074249;28;20205;-76
2022/09/18 05:42:23;;;;;;;0.50;0.40;;;11.10;99.90;;;;;;5074469;28;20284;-77
2022/09/18 05:44:50;;;;;;;0.50;0.40;;;11.10;99.90;;;;;;5074533;28;20223;-77
2022/09/18 05:47:17;;;;;;;0.60;0.50;;;11.10;99.90;;;;;;5074199;28;20216;-77
2022/09/18 05:49:43;;;;;;;2.03;1.88;;;11.10;99.90;;;;;;5074412;28;20754;-77
2022/09/18 05:52:11;;;;;;;0.55;0.55;;;11.20;99.90;;;;;;5074807;28;20229;-77
2022/09/18 05:54:41;;;;;;;0.50;0.40;;;11.20;99.90;;;;;;5074900;28;20225;-76
2022/09/18 05:57:08;;;;;;;0.50;0.40;;;11.20;99.90;;;;;;5074723;28;20317;-78
2022/09/18 05:59:35;;;;;;;0.50;0.40;;;11.20;99.90;;;;;;5074214;28;20259;-78
2022/09/18 06:02:02;;;;;;;0.50;0.40;;;11.30;99.90;;;;;;5074041;28;20285;-77
2022/09/18 06:04:29;;;;;;;1.30;1.08;;;11.30;99.90;;;;;;5073641;28;20221;-79
2022/09/18 06:06:55;;;;;;;1.63;1.52;;;11.30;99.90;;;;;;5074436;28;20588;-78
2022/09/18 06:09:24;;;;;;;0.98;0.98;;;11.30;99.90;;;;;;5073023;28;20206;-79
2022/09/18 06:11:50;;;;;;;0.50;0.40;;;11.30;99.90;;;;;;5074405;28;20286;-78
2022/09/18 06:14:17;;;;;;;1.02;0.73;;;11.30;99.90;;;;;;5073548;28;20222;-79
2022/09/18 06:16:44;;;;;;;0.50;0.40;;;11.40;99.90;;;;;;5074315;28;20206;-78
2022/09/18 06:19:11;;;;;;;0.50;0.40;;;11.40;99.90;;;;;;5073881;28;20221;-76
2022/09/18 06:21:38;;;;;;;1.25;1.25;;;11.40;99.90;;;;;;5074601;28;20271;-79
2022/09/18 06:24:05;;;;;;;0.50;0.40;;;11.40;99.90;;;;;;5073079;28;20320;-79
2022/09/18 06:26:33;;;;;;;1.00;0.85;;;11.40;99.90;;;;;;5074612;28;20190;-78
2022/09/18 06:29:00;;;;;;;0.80;0.50;;;11.50;99.90;;;;;;5073903;28;20587;-78
2022/09/18 06:31:27;;;;;;;0.50;0.40;;;11.50;99.90;;;;;;5074132;28;20285;-79
2022/09/18 06:33:54;;;;;;;0.50;0.50;;;11.50;99.90;;;;;;5073294;28;20201;-77
2022/09/18 06:36:21;;;;;;;0.50;0.40;;;11.60;99.90;;;;;;5073397;28;20207;-79
2022/09/18 06:38:50;;;;;;;0.50;0.40;;;11.60;99.90;;;;;;5073530;28;20570;-78
2022/09/18 06:41:17;;;;;;;0.93;0.93;;;11.50;99.90;;;;;;5073995;28;20205;-79
2022/09/18 06:43:49;;;;;;;0.50;0.40;;;11.50;99.90;;;;;;5073051;28;20208;-79
2022/09/18 06:46:15;;;;;;;0.52;0.52;;;11.40;99.90;;;;;;5072719;28;20690;-78
2022/09/18 06:48:42;;;;;;;0.50;0.40;;;11.40;99.90;;;;;;5072779;28;20583;-78
2022/09/18 06:51:09;;;;;;;0.50;0.40;;;11.40;99.90;;;;;;5073274;28;20292;-78
2022/09/18 06:53:36;;;;;;;1.20;1.15;;;11.40;99.90;;;;;;5073034;28;20232;-78
2022/09/18 06:56:03;;;;;;;1.73;1.63;;;11.50;99.90;;;;;;5071921;28;20597;-77
2022/09/18 06:58:30;;;;;;;0.50;0.50;;;11.50;99.90;;;;;;5072324;28;20194;-78
2022/09/18 07:01:00;;;;;;;2.78;0.95;;;11.40;99.90;;;;;;5072642;28;20208;-77
2022/09/18 07:03:27;;;;;;;0.50;0.40;;;11.40;99.90;;;;;;5072860;28;20201;-78
2022/09/18 07:05:54;;;;;;;0.50;0.40;;;11.40;99.90;;;;;;5071799;28;20213;-77
2022/09/18 07:08:21;;;;;;;1.15;0.70;;;11.40;99.90;;;;;;5072320;28;20750;-79
2022/09/18 07:10:47;;;;;;;0.50;0.40;;;11.50;99.90;;;;;;5072110;28;20208;-78
2022/09/18 07:13:14;;;;;;;0.50;0.40;;;11.50;99.90;;;;;;5072578;28;20196;-78
2022/09/18 07:15:41;;;;;;;0.60;0.60;;;11.50;99.90;;;;;;5071922;28;20274;-78
2022/09/18 07:18:10;;;;;;;0.93;0.93;;;11.60;99.90;;;;;;5073859;28;20194;-79
2022/09/18 07:20:36;;;;;;;0.50;0.40;;;11.70;99.90;;;;;;5073263;28;20200;-77
2022/09/18 07:23:03;;;;;;;0.60;0.60;;;11.60;99.90;;;;;;5072225;28;21017;-76
2022/09/18 07:25:33;;;;;;;0.50;0.40;;;11.70;99.90;;;;;;5071523;28;20229;-77
2022/09/18 07:28:04;;;;;;;0.50;0.40;;;11.70;99.90;;;;;;5071926;28;20233;-78
2022/09/18 07:30:30;;;;;;;0.50;0.40;;;11.80;99.90;;;;;;5071436;28;20204;-77
2022/09/18 07:32:57;;;;;;;0.50;0.40;;;11.80;99.90;;;;;;5071689;28;20198;-77
2022/09/18 07:35:25;;;;;;;0.50;0.40;;;11.80;99.90;;;;;;5071683;28;20255;-77
2022/09/18 07:37:56;;;;;;;0.50;0.40;;;11.70;99.90;;;;;;5071694;28;20284;-77
2022/09/18 07:40:23;;;;;;;0.50;0.40;;;11.80;99.90;;;;;;5071413;28;20191;-78
2022/09/18 07:42:50;;;;;;;0.50;0.40;;;11.90;99.90;;;;;;5071743;28;20204;-77
2022/09/18 07:45:17;;;;;;;0.50;0.40;;;12.00;99.90;;;;;;5070946;28;20308;-77
2022/09/18 07:47:44;;;;;;;0.70;0.60;;;12.10;99.90;;;;;;5070903;28;20436;-78
2022/09/18 07:50:14;;;;;;;0.50;0.40;;;12.30;99.90;;;;;;5071468;28;20277;-75
2022/09/18 07:52:49;;;;;;;0.52;0.45;;;12.50;99.90;;;;;;5071254;28;20192;-75
2022/09/18 07:55:18;;;;;;;0.50;0.40;;;12.70;99.90;;;;;;5071025;28;20221;-77
2022/09/18 07:57:45;;;;;;;0.50;0.40;;;12.60;99.90;;;;;;5071076;28;20837;-75
2022/09/18 08:00:13;;;;;;;0.50;0.40;;;12.70;99.90;;;;;;5071389;28;20201;-75
2022/09/18 08:02:40;;;;;;;0.50;0.40;;;12.70;99.90;;;;;;5070889;28;20522;-74
2022/09/18 08:05:08;;;;;;;1.60;1.30;;;12.70;99.90;;;;;;5070862;28;20214;-76
2022/09/18 08:07:35;;;;;;;0.50;0.40;;;12.70;99.90;;;;;;5070962;28;20203;-76
2022/09/18 08:10:04;;;;;;;0.50;0.40;;;12.60;99.90;;;;;;5071298;28;20303;-77
2022/09/18 08:12:31;;;;;;;0.50;0.40;;;12.60;99.90;;;;;;5071062;28;20207;-77
2022/09/18 08:14:58;;;;;;;0.50;0.40;;;12.60;99.90;;;;;;5070502;28;20513;-76
2022/09/18 08:17:25;;;;;;;0.50;0.40;;;12.60;99.90;;;;;;5070892;28;20447;-77
2022/09/18 08:19:52;;;;;;;0.50;0.40;;;12.50;99.90;;;;;;5070984;28;20603;-77
2022/09/18 08:22:19;;;;;;;0.50;0.40;;;12.50;99.90;;;;;;5071141;28;20194;-78
2022/09/18 08:24:46;;;;;;;0.50;0.40;;;12.40;99.90;;;;;;5071485;28;20236;-78
2022/09/18 08:27:14;;;;;;;1.10;1.10;;;12.40;99.90;;;;;;5071078;28;20284;-75
2022/09/18 08:29:41;;;;;;;0.50;0.40;;;12.50;99.90;;;;;;5071072;28;20224;-77
2022/09/18 08:32:08;;;;;;;0.50;0.40;;;12.60;99.90;;;;;;5070716;28;20212;-77
2022/09/18 08:34:35;;;;;;;1.60;0.73;;;12.60;99.90;;;;;;5074371;28;20544;-78
2022/09/18 08:37:01;;;;;;;0.50;0.40;;;12.60;99.90;;;;;;5074853;28;20669;-77
2022/09/18 08:39:28;;;;;;;0.50;0.40;;;12.60;99.90;;;;;;5074763;28;20535;-78
2022/09/18 08:42:10;;;;;;;0.50;0.30;;;12.50;99.90;;;;;;5074472;28;20193;-77
2022/09/18 08:44:45;;;;;;;0.50;0.40;;;12.50;99.90;;;;;;5074483;28;20245;-77
2022/09/18 08:47:16;;;;;;;0.85;0.85;;;12.50;99.90;;;;;;5077786;28;20284;-77
2022/09/18 08:49:47;;;;;;;0.50;0.40;;;12.50;99.90;;;;;;5074360;28;20224;-77
2022/09/18 08:52:17;;;;;;;0.50;0.40;;;12.50;99.90;;;;;;5074633;28;20198;-76
2022/09/18 08:54:48;;;;;;;0.50;0.40;;;12.40;99.90;;;;;;5073743;28;20476;-76
2022/09/18 08:57:21;;;;;;;0.50;0.40;;;12.40;99.90;;;;;;5074928;28;20440;-77
2022/09/18 08:59:54;;;;;;;0.50;0.40;;;12.40;99.90;;;;;;5074433;28;20978;-77
2022/09/18 09:02:38;;;;;;;0.50;0.40;;;12.60;99.90;;;;;;5074407;28;20425;-77
2022/09/18 09:05:09;;;;;;;0.50;0.40;;;12.70;99.90;;;;;;5072006;28;20499;-76
2022/09/18 09:08:13;;;;;;;0.60;0.50;;;12.70;99.90;;;;;;5074532;28;20527;-77
2022/09/18 09:10:44;;;;;;;0.50;0.40;;;12.70;99.90;;;;;;5074282;28;20193;-76
2022/09/18 09:13:39;;;;;;;0.70;0.60;;;12.70;99.90;;;;;;5074440;28;20499;-77
2022/09/18 09:16:15;;;;;;;1.10;0.70;;;12.70;99.90;;;;;;5073806;28;20462;-76
2022/09/18 09:18:52;;;;;;;0.60;0.60;;;12.70;99.90;;;;;;5073871;28;20481;-77
2022/09/18 09:21:22;;;;;;;0.70;0.60;;;12.60;99.90;;;;;;5074387;28;20439;-77
2022/09/18 09:24:04;;;;;;;0.50;0.40;;;12.50;99.90;;;;;;5073977;28;20193;-77
2022/09/18 09:26:32;;;;;;;0.50;0.40;;;12.50;99.90;;;;;;5073930;28;20198;-77
2022/09/18 09:29:02;;;;;;;0.82;0.82;;;12.60;99.90;;;;;;5073679;28;20888;-73
2022/09/18 09:31:36;;;;;;;0.60;0.60;;;12.70;99.90;;;;;;5073869;28;20600;-77
2022/09/18 09:34:09;;;;;;;0.50;0.40;;;12.80;99.90;;;;;;5073773;28;20439;-77
2022/09/18 09:36:37;;;;;;;0.50;0.40;;;12.90;99.90;;;;;;5074428;28;20449;-78
2022/09/18 09:39:12;;;;;;;0.50;0.40;;;13.10;99.90;;;;;;5073745;28;20622;-78
2022/09/18 09:41:42;;;;;;;0.50;0.40;;;13.00;99.90;;;;;;5073648;28;20665;-77
2022/09/18 09:44:26;;;;;;;0.50;0.40;;;13.00;99.90;;;;;;5072491;28;20674;-77
2022/09/18 09:47:10;;;;;;;2.05;1.13;;;13.10;99.90;;;;;;5074008;28;20434;-77
2022/09/18 09:49:46;;;;;;;0.50;0.50;;;13.20;99.90;;;;;;5073646;28;20754;-76
2022/09/18 09:52:20;;;;;;;2.95;1.48;;;13.10;99.90;;;;;;5074479;28;20419;-76
2022/09/18 09:54:49;;;;;;;0.52;0.50;;;13.00;99.90;;;;;;5073057;28;20718;-77
2022/09/18 09:57:24;;;;;;;0.63;0.63;;;12.90;99.90;;;;;;5074071;28;20292;-77
2022/09/18 10:00:03;;;;;;;0.50;0.40;;;12.80;99.90;;;;;;5073899;28;20596;-78
2022/09/18 10:02:54;;;;;;;0.50;0.40;;;12.70;99.90;;;;;;5073518;28;20201;-76
2022/09/18 10:05:28;;;;;;;0.50;0.40;;;12.70;99.90;;;;;;5073644;28;21047;-78
2022/09/18 10:08:02;;;;;;;0.50;0.40;;;12.60;99.90;;;;;;5073605;28;20413;-77
2022/09/18 10:10:37;;;;;;;0.50;0.40;;;12.60;99.90;;;;;;5073645;28;20886;-78
2022/09/18 10:13:10;;;;;;;0.50;0.40;;;12.50;99.90;;;;;;5073016;28;20955;-75
2022/09/18 10:15:39;;;;;;;0.50;0.40;;;12.50;99.90;;;;;;5073109;28;20301;-76
2022/09/18 10:18:15;;;;;;;0.50;0.40;;;12.40;99.90;;;;;;5072813;28;20224;-76
2022/09/18 10:20:44;;;;;;;0.50;0.40;;;12.30;99.90;;;;;;5072531;28;20197;-77
2022/09/18 10:23:14;;;;;;;0.50;0.40;;;12.20;99.90;;;;;;5072826;28;20197;-78
2022/09/18 10:25:46;;;;;;;0.50;0.40;;;12.00;99.90;;;;;;5072956;28;20220;-77
2022/09/18 10:28:13;;;;;;;0.50;0.40;;;12.00;99.90;;;;;;5072454;28;20184;-78
2022/09/18 10:30:57;;;;;;;0.50;0.40;;;11.90;99.90;;;;;;5072806;28;20761;-76
2022/09/18 10:33:35;;;;;;;0.50;0.40;;;11.90;99.90;;;;;;5070937;28;20201;-77
2022/09/18 10:36:09;;;;;;;0.50;0.40;;;11.90;99.90;;;;;;5072143;28;20218;-77
2022/09/18 10:38:38;;;;;;;0.50;0.40;;;11.80;99.90;;;;;;5072453;28;20677;-77
2022/09/18 10:41:35;;;;;;;0.50;0.30;;;11.90;99.90;;;;;;5066447;28;20803;-77
2022/09/18 10:44:21;;;;;;;0.50;0.40;;;11.90;99.90;;;;;;5066908;28;20194;-77
2022/09/18 10:46:57;;;;;;;0.50;0.40;;;12.00;99.90;;;;;;5072440;28;20491;-77
2022/09/18 10:49:29;;;;;;;0.60;0.60;;;12.00;99.90;;;;;;5071867;28;20233;-77
2022/09/18 10:52:31;;;;;;;0.50;0.40;;;12.00;99.90;;;;;;5072661;28;20563;-77
2022/09/18 10:55:11;;;;;;;0.50;0.40;;;12.00;99.90;;;;;;4971294;28;20325;-78
2022/09/18 10:57:40;;;;;;;0.50;0.40;;;12.10;99.90;;;;;;4972842;28;20199;-78
2022/09/18 11:00:33;;;;;;;0.50;0.40;;;12.10;99.90;;;;;;4974198;28;20445;-78
2022/09/18 11:03:20;;;;;;;0.50;0.40;;;12.10;99.90;;;;;;4974686;28;20428;-79
2022/09/18 11:05:52;;;;;;;0.50;0.40;;;12.30;99.90;;;;;;4973019;28;20541;-78
2022/09/18 11:08:23;;;;;;;0.50;0.40;;;12.40;99.90;;;;;;4973051;28;20499;-78
2022/09/18 11:10:55;;;;;;;0.50;0.40;;;12.60;99.90;;;;;;4973026;28;20464;-78
2022/09/18 11:13:24;;;;;;;0.50;0.40;;;12.70;99.90;;;;;;4972830;28;20463;-79
2022/09/18 11:15:54;;;;;;;0.50;0.40;;;12.80;99.90;;;;;;4974884;28;20463;-78
2022/09/18 11:18:23;;;;;;;0.50;0.40;;;13.00;99.90;;;;;;4972094;28;20968;-78
2022/09/18 11:20:53;;;;;;;0.50;0.40;;;13.10;99.90;;;;;;4970899;28;20432;-77
2022/09/18 11:23:27;;;;;;;0.50;0.40;;;13.20;99.90;;;;;;4972386;28;21090;-76
2022/09/18 11:26:15;;;;;;;0.50;0.40;;;13.30;99.90;;;;;;5022813;28;20454;-76
2022/09/18 11:28:42;;;;;;;0.97;0.87;;;13.30;99.90;;;;;;5072122;28;20428;-78
2022/09/18 11:31:15;;;;;;;0.50;0.40;;;13.40;99.90;;;;;;5071272;28;20432;-76
2022/09/18 11:33:46;;;;;;;0.50;0.40;;;13.40;99.90;;;;;;5071872;28;20990;-76
2022/09/18 11:36:22;;;;;;;0.50;0.40;;;13.40;99.90;;;;;;5071820;28;20453;-76
2022/09/18 11:38:49;;;;;;;0.50;0.40;;;13.30;99.90;;;;;;5072070;28;20766;-76
2022/09/18 11:41:23;;;;;;;0.50;0.40;;;13.30;99.90;;;;;;5071435;28;20439;-77
2022/09/18 11:44:00;;;;;;;0.50;0.40;;;13.30;99.90;;;;;;5072046;28;20413;-77
2022/09/18 11:46:36;;;;;;;0.50;0.40;;;13.30;99.90;;;;;;5071978;28;20413;-78
2022/09/18 11:49:07;;;;;;;0.50;0.40;;;13.30;99.90;;;;;;5072100;28;22374;-76
2022/09/18 11:51:44;;;;;;;1.03;0.93;;;13.30;99.90;;;;;;5071370;28;20423;-77
2022/09/18 11:54:16;;;;;;;0.50;0.40;;;13.20;99.90;;;;;;5070842;28;20504;-77
2022/09/18 11:56:46;;;;;;;0.50;0.50;;;13.20;99.90;;;;;;5072242;28;20893;-76
2022/09/18 11:59:23;;;;;;;0.50;0.40;;;13.20;99.90;;;;;;5071724;28;20431;-76
2022/09/18 12:01:53;;;;;;;0.50;0.40;;;13.20;99.90;;;;;;5071559;28;20434;-76
2022/09/18 12:04:32;;;;;;;0.50;0.40;;;13.20;99.90;;;;;;5071202;28;20461;-76
2022/09/18 12:07:09;;;;;;;0.50;0.40;;;13.20;99.90;;;;;;5071543;28;20417;-76
2022/09/18 12:09:43;;;;;;;0.70;0.60;;;13.20;99.90;;;;;;5072253;28;20461;-76
2022/09/18 12:12:14;;;;;;;0.90;0.50;;;13.20;99.90;;;;;;5071384;28;20414;-77
2022/09/18 12:14:46;;;;;;;0.50;0.40;;;13.20;99.90;;;;;;5071555;28;20456;-76
2022/09/18 12:17:18;;;;;;;0.50;0.50;;;13.10;99.90;;;;;;5071031;28;20427;-76
2022/09/18 12:19:49;;;;;;;0.60;0.50;;;13.10;99.90;;;;;;5071025;28;20413;-76
2022/09/18 12:22:22;;;;;;;0.50;0.40;;;13.20;99.90;;;;;;5071088;28;20493;-76
2022/09/18 12:24:48;;;;;;;0.70;0.70;;;13.10;99.90;;;;;;5070845;28;20958;-76
2022/09/18 12:27:25;;;;;;;0.50;0.40;;;13.20;99.90;;;;;;5071329;28;20958;-76
2022/09/18 12:30:04;;;;;;;0.50;0.37;;;13.20;99.90;;;;;;5071505;28;20561;-76
2022/09/18 12:33:00;;;;;;;3.63;0.40;;;13.20;99.90;;;;;;5070901;28;20442;-76
2022/09/18 12:35:36;;;;;;;0.90;0.90;;;13.10;99.90;;;;;;5045716;28;20547;-76
2022/09/18 12:38:16;;;;;;;0.73;0.73;;;13.00;99.90;;;;;;5071519;28;20435;-76
2022/09/18 12:41:05;;;;;;;5.80;1.00;;;13.10;99.90;;;;;;5070833;28;20433;-75
2022/09/18 12:43:51;;;;;;;1.00;0.70;;;13.00;99.90;;;;;;5070623;28;20873;-76
2022/09/18 12:46:39;;;;;;;1.23;1.13;;;13.00;99.90;;;;;;5071191;28;20550;-76
2022/09/18 12:49:18;;;;;;;0.83;0.83;;;13.10;99.90;;;;;;5070974;28;20535;-76
2022/09/18 12:51:47;;;;;;;0.50;0.40;;;13.10;99.90;;;;;;5070717;28;20420;-76
2022/09/18 12:54:37;;;;;;;1.00;0.90;;;13.10;99.90;;;;;;5069863;28;20483;-76
2022/09/18 12:57:24;;;;;;;0.60;0.60;;;13.10;99.90;;;;;;5070818;28;20458;-75
2022/09/18 12:59:57;;;;;;;0.50;0.40;;;13.10;99.90;;;;;;5070970;28;20200;-75
2022/09/18 13:02:41;;;;;;;0.50;0.40;;;12.90;99.90;;;;;;5015213;28;21352;-72
2022/09/18 13:05:14;;;;;;;0.50;0.40;;;12.90;99.90;;;;;;5069266;28;20460;-77
2022/09/18 13:07:45;;;;;;;0.50;0.40;;;12.90;99.90;;;;;;5070880;28;20823;-76
2022/09/18 13:10:19;;;;;;;0.50;0.40;;;12.80;99.90;;;;;;5066166;28;20581;-76